sensor_id;sensor_type;location;lat;lon;timestamp;P1;durP1;ratioP1;P2;durP2;ratioP2
261;SDS011;114;48.260;10.988;2023-09-08T00:02:26;12.70;;;5.40;;
261;SDS011;114;48.260;10.988;2023-09-08T00:04:52;10.57;;;5.93;;
261;SDS011;114;48.260;10.988;2023-09-08T00:07:18;9.83;;;6.60;;
261;SDS011;114;48.260;10.988;2023-09-08T00:09:44;6.90;;;6.27;;
261;SDS011;114;48.260;10.988;2023-09-08T00:12:10;8.30;;;6.80;;
261;SDS011;114;48.260;10.988;2023-09-08T00:14:35;8.83;;;6.60;;
261;SDS011;114;48.260;10.988;2023-09-08T00:17:01;7.93;;;5.63;;
261;SDS011;114;48.260;10.988;2023-09-08T00:19:27;7.40;;;6.37;;
261;SDS011;114;48.260;10.988;2023-09-08T00:21:53;5.90;;;5.40;;
261;SDS011;114;48.260;10.988;2023-09-08T00:24:18;6.80;;;6.20;;
261;SDS011;114;48.260;10.988;2023-09-08T00:26:44;11.70;;;5.97;;
261;SDS011;114;48.260;10.988;2023-09-08T00:29:10;8.80;;;6.17;;
261;SDS011;114;48.260;10.988;2023-09-08T00:31:36;20.00;;;7.10;;
261;SDS011;114;48.260;10.988;2023-09-08T00:34:01;10.87;;;7.20;;
261;SDS011;114;48.260;10.988;2023-09-08T00:36:27;8.63;;;6.90;;
261;SDS011;114;48.260;10.988;2023-09-08T00:38:53;7.83;;;7.07;;
261;SDS011;114;48.260;10.988;2023-09-08T00:41:18;6.07;;;5.57;;
261;SDS011;114;48.260;10.988;2023-09-08T00:43:44;10.10;;;6.87;;
261;SDS011;114;48.260;10.988;2023-09-08T00:46:10;7.30;;;6.60;;
261;SDS011;114;48.260;10.988;2023-09-08T00:48:36;8.33;;;7.30;;
261;SDS011;114;48.260;10.988;2023-09-08T00:51:03;9.47;;;7.43;;
261;SDS011;114;48.260;10.988;2023-09-08T00:53:30;11.53;;;6.93;;
261;SDS011;114;48.260;10.988;2023-09-08T00:55:56;8.27;;;7.47;;
261;SDS011;114;48.260;10.988;2023-09-08T00:58:23;9.97;;;7.10;;
261;SDS011;114;48.260;10.988;2023-09-08T01:00:51;7.17;;;6.47;;
261;SDS011;114;48.260;10.988;2023-09-08T01:03:16;9.53;;;7.70;;
261;SDS011;114;48.260;10.988;2023-09-08T01:05:42;9.77;;;7.63;;
261;SDS011;114;48.260;10.988;2023-09-08T01:08:11;10.97;;;7.90;;
261;SDS011;114;48.260;10.988;2023-09-08T01:10:37;12.40;;;7.50;;
261;SDS011;114;48.260;10.988;2023-09-08T01:13:06;9.73;;;8.77;;
261;SDS011;114;48.260;10.988;2023-09-08T01:15:31;13.23;;;8.50;;
261;SDS011;114;48.260;10.988;2023-09-08T01:17:57;11.23;;;8.20;;
261;SDS011;114;48.260;10.988;2023-09-08T01:26:10;9.13;;;8.23;;
261;SDS011;114;48.260;10.988;2023-09-08T01:28:41;9.07;;;8.20;;
261;SDS011;114;48.260;10.988;2023-09-08T01:31:09;10.80;;;7.43;;
261;SDS011;114;48.260;10.988;2023-09-08T01:33:35;7.70;;;7.00;;
261;SDS011;114;48.260;10.988;2023-09-08T01:36:01;6.83;;;6.30;;
261;SDS011;114;48.260;10.988;2023-09-08T01:38:27;11.73;;;8.07;;
261;SDS011;114;48.260;10.988;2023-09-08T01:40:52;9.80;;;7.70;;
261;SDS011;114;48.260;10.988;2023-09-08T01:43:18;9.47;;;7.90;;
261;SDS011;114;48.260;10.988;2023-09-08T01:45:44;9.80;;;8.20;;
261;SDS011;114;48.260;10.988;2023-09-08T01:48:09;8.90;;;8.07;;
261;SDS011;114;48.260;10.988;2023-09-08T01:50:35;11.67;;;8.40;;
261;SDS011;114;48.260;10.988;2023-09-08T01:53:01;10.87;;;8.60;;
261;SDS011;114;48.260;10.988;2023-09-08T01:55:26;12.03;;;9.10;;
261;SDS011;114;48.260;10.988;2023-09-08T01:57:52;15.10;;;9.10;;
261;SDS011;114;48.260;10.988;2023-09-08T02:00:18;9.97;;;9.07;;
261;SDS011;114;48.260;10.988;2023-09-08T02:02:44;11.33;;;9.40;;
261;SDS011;114;48.260;10.988;2023-09-08T02:05:10;11.23;;;8.03;;
261;SDS011;114;48.260;10.988;2023-09-08T02:07:35;10.70;;;9.57;;
261;SDS011;114;48.260;10.988;2023-09-08T02:10:02;11.13;;;10.03;;
261;SDS011;114;48.260;10.988;2023-09-08T02:12:29;15.00;;;9.50;;
261;SDS011;114;48.260;10.988;2023-09-08T02:14:55;9.97;;;9.07;;
261;SDS011;114;48.260;10.988;2023-09-08T02:17:20;10.93;;;9.80;;
261;SDS011;114;48.260;10.988;2023-09-08T02:19:46;11.57;;;9.93;;
261;SDS011;114;48.260;10.988;2023-09-08T02:22:12;12.63;;;11.33;;
261;SDS011;114;48.260;10.988;2023-09-08T02:24:38;12.40;;;8.90;;
261;SDS011;114;48.260;10.988;2023-09-08T02:27:03;12.00;;;9.83;;
261;SDS011;114;48.260;10.988;2023-09-08T02:29:29;12.07;;;10.73;;
261;SDS011;114;48.260;10.988;2023-09-08T02:31:56;10.20;;;9.20;;
261;SDS011;114;48.260;10.988;2023-09-08T02:34:22;17.83;;;9.17;;
261;SDS011;114;48.260;10.988;2023-09-08T02:36:47;13.80;;;9.63;;
261;SDS011;114;48.260;10.988;2023-09-08T02:39:16;15.43;;;9.67;;
261;SDS011;114;48.260;10.988;2023-09-08T02:41:41;13.63;;;9.63;;
261;SDS011;114;48.260;10.988;2023-09-08T02:44:07;11.50;;;9.93;;
261;SDS011;114;48.260;10.988;2023-09-08T02:46:33;12.83;;;9.90;;
261;SDS011;114;48.260;10.988;2023-09-08T02:48:58;14.33;;;10.37;;
261;SDS011;114;48.260;10.988;2023-09-08T02:51:24;16.83;;;9.53;;
261;SDS011;114;48.260;10.988;2023-09-08T02:53:50;15.43;;;11.13;;
261;SDS011;114;48.260;10.988;2023-09-08T02:56:16;12.23;;;10.33;;
261;SDS011;114;48.260;10.988;2023-09-08T02:58:43;11.90;;;9.80;;
261;SDS011;114;48.260;10.988;2023-09-08T03:01:16;12.37;;;10.00;;
261;SDS011;114;48.260;10.988;2023-09-08T03:03:45;16.97;;;9.93;;
261;SDS011;114;48.260;10.988;2023-09-08T03:06:11;19.83;;;10.27;;
261;SDS011;114;48.260;10.988;2023-09-08T03:08:38;13.10;;;9.60;;
261;SDS011;114;48.260;10.988;2023-09-08T03:11:04;12.43;;;10.00;;
261;SDS011;114;48.260;10.988;2023-09-08T03:13:31;10.33;;;9.20;;
261;SDS011;114;48.260;10.988;2023-09-08T03:16:01;9.80;;;8.80;;
261;SDS011;114;48.260;10.988;2023-09-08T03:18:31;11.13;;;9.17;;
261;SDS011;114;48.260;10.988;2023-09-08T03:20:58;11.47;;;10.27;;
261;SDS011;114;48.260;10.988;2023-09-08T03:23:25;9.90;;;9.00;;
261;SDS011;114;48.260;10.988;2023-09-08T03:25:51;11.00;;;9.37;;
261;SDS011;114;48.260;10.988;2023-09-08T03:28:17;10.93;;;9.87;;
261;SDS011;114;48.260;10.988;2023-09-08T03:30:42;10.50;;;9.33;;
261;SDS011;114;48.260;10.988;2023-09-08T03:33:08;15.53;;;8.97;;
261;SDS011;114;48.260;10.988;2023-09-08T03:35:34;14.03;;;9.50;;
261;SDS011;114;48.260;10.988;2023-09-08T03:37:59;10.80;;;9.63;;
261;SDS011;114;48.260;10.988;2023-09-08T03:40:26;22.90;;;9.17;;
261;SDS011;114;48.260;10.988;2023-09-08T03:42:52;9.83;;;8.60;;
261;SDS011;114;48.260;10.988;2023-09-08T03:45:17;8.60;;;7.80;;
261;SDS011;114;48.260;10.988;2023-09-08T03:47:43;14.40;;;10.90;;
261;SDS011;114;48.260;10.988;2023-09-08T03:50:09;15.30;;;9.93;;
261;SDS011;114;48.260;10.988;2023-09-08T03:52:35;14.77;;;8.80;;
261;SDS011;114;48.260;10.988;2023-09-08T03:55:01;12.10;;;9.17;;
261;SDS011;114;48.260;10.988;2023-09-08T03:57:27;11.10;;;6.93;;
261;SDS011;114;48.260;10.988;2023-09-08T03:59:52;10.57;;;8.40;;
261;SDS011;114;48.260;10.988;2023-09-08T04:02:18;9.60;;;8.70;;
261;SDS011;114;48.260;10.988;2023-09-08T04:04:43;9.90;;;8.90;;
261;SDS011;114;48.260;10.988;2023-09-08T04:07:09;9.20;;;8.30;;
261;SDS011;114;48.260;10.988;2023-09-08T04:09:35;12.73;;;7.43;;
261;SDS011;114;48.260;10.988;2023-09-08T04:12:01;8.10;;;7.50;;
261;SDS011;114;48.260;10.988;2023-09-08T04:14:26;10.90;;;8.60;;
261;SDS011;114;48.260;10.988;2023-09-08T04:16:53;9.10;;;8.27;;
261;SDS011;114;48.260;10.988;2023-09-08T04:19:19;13.40;;;9.83;;
261;SDS011;114;48.260;10.988;2023-09-08T04:21:45;11.20;;;10.00;;
261;SDS011;114;48.260;10.988;2023-09-08T04:24:10;12.33;;;10.37;;
261;SDS011;114;48.260;10.988;2023-09-08T04:26:36;13.90;;;9.77;;
261;SDS011;114;48.260;10.988;2023-09-08T04:29:03;13.07;;;9.10;;
261;SDS011;114;48.260;10.988;2023-09-08T04:31:29;11.53;;;10.33;;
261;SDS011;114;48.260;10.988;2023-09-08T04:33:55;12.00;;;10.60;;
261;SDS011;114;48.260;10.988;2023-09-08T04:36:22;10.83;;;9.73;;
261;SDS011;114;48.260;10.988;2023-09-08T04:38:48;16.33;;;10.40;;
261;SDS011;114;48.260;10.988;2023-09-08T04:41:14;12.03;;;9.27;;
261;SDS011;114;48.260;10.988;2023-09-08T04:43:39;11.50;;;8.10;;
261;SDS011;114;48.260;10.988;2023-09-08T04:46:05;11.57;;;9.10;;
261;SDS011;114;48.260;10.988;2023-09-08T04:48:32;17.87;;;8.97;;
261;SDS011;114;48.260;10.988;2023-09-08T04:50:57;12.37;;;8.40;;
261;SDS011;114;48.260;10.988;2023-09-08T04:53:23;13.80;;;8.20;;
261;SDS011;114;48.260;10.988;2023-09-08T04:55:48;17.40;;;8.93;;
261;SDS011;114;48.260;10.988;2023-09-08T04:58:14;17.83;;;8.63;;
261;SDS011;114;48.260;10.988;2023-09-08T05:00:40;17.37;;;8.70;;
261;SDS011;114;48.260;10.988;2023-09-08T05:03:05;10.43;;;9.43;;
261;SDS011;114;48.260;10.988;2023-09-08T05:05:35;10.80;;;8.60;;
261;SDS011;114;48.260;10.988;2023-09-08T05:08:01;9.30;;;8.50;;
261;SDS011;114;48.260;10.988;2023-09-08T05:10:27;12.83;;;9.57;;
261;SDS011;114;48.260;10.988;2023-09-08T05:12:52;10.30;;;9.30;;
261;SDS011;114;48.260;10.988;2023-09-08T05:15:18;10.23;;;9.03;;
261;SDS011;114;48.260;10.988;2023-09-08T05:17:46;9.03;;;8.00;;
261;SDS011;114;48.260;10.988;2023-09-08T05:20:12;11.40;;;9.60;;
261;SDS011;114;48.260;10.988;2023-09-08T05:22:37;10.10;;;9.07;;
261;SDS011;114;48.260;10.988;2023-09-08T05:25:04;10.73;;;8.60;;
261;SDS011;114;48.260;10.988;2023-09-08T05:27:29;16.00;;;9.93;;
261;SDS011;114;48.260;10.988;2023-09-08T05:29:56;12.13;;;9.77;;
261;SDS011;114;48.260;10.988;2023-09-08T05:32:22;13.17;;;8.80;;
261;SDS011;114;48.260;10.988;2023-09-08T05:34:48;16.43;;;9.43;;
261;SDS011;114;48.260;10.988;2023-09-08T05:37:14;12.53;;;9.00;;
261;SDS011;114;48.260;10.988;2023-09-08T05:39:39;10.23;;;9.13;;
261;SDS011;114;48.260;10.988;2023-09-08T05:42:06;11.80;;;10.10;;
261;SDS011;114;48.260;10.988;2023-09-08T05:44:31;14.43;;;7.97;;
261;SDS011;114;48.260;10.988;2023-09-08T05:46:58;13.60;;;9.40;;
261;SDS011;114;48.260;10.988;2023-09-08T05:49:24;14.23;;;8.77;;
261;SDS011;114;48.260;10.988;2023-09-08T05:51:50;13.23;;;8.83;;
261;SDS011;114;48.260;10.988;2023-09-08T05:54:15;10.33;;;8.47;;
261;SDS011;114;48.260;10.988;2023-09-08T05:56:41;11.30;;;8.97;;
261;SDS011;114;48.260;10.988;2023-09-08T05:59:07;10.70;;;9.70;;
261;SDS011;114;48.260;10.988;2023-09-08T06:01:32;12.37;;;9.50;;
261;SDS011;114;48.260;10.988;2023-09-08T06:03:58;11.30;;;9.43;;
261;SDS011;114;48.260;10.988;2023-09-08T06:06:24;19.33;;;10.10;;
261;SDS011;114;48.260;10.988;2023-09-08T06:08:53;11.63;;;8.53;;
261;SDS011;114;48.260;10.988;2023-09-08T06:11:19;17.17;;;10.10;;
261;SDS011;114;48.260;10.988;2023-09-08T06:13:44;15.03;;;10.37;;
261;SDS011;114;48.260;10.988;2023-09-08T06:16:10;11.40;;;9.60;;
261;SDS011;114;48.260;10.988;2023-09-08T06:18:36;15.63;;;10.00;;
261;SDS011;114;48.260;10.988;2023-09-08T06:21:07;15.20;;;9.60;;
261;SDS011;114;48.260;10.988;2023-09-08T06:23:34;13.60;;;11.30;;
261;SDS011;114;48.260;10.988;2023-09-08T06:26:00;13.47;;;11.20;;
261;SDS011;114;48.260;10.988;2023-09-08T06:28:26;24.80;;;11.07;;
261;SDS011;114;48.260;10.988;2023-09-08T06:30:52;15.97;;;10.83;;
261;SDS011;114;48.260;10.988;2023-09-08T06:33:18;16.87;;;11.20;;
261;SDS011;114;48.260;10.988;2023-09-08T06:35:45;15.40;;;10.90;;
261;SDS011;114;48.260;10.988;2023-09-08T06:38:12;14.00;;;12.17;;
261;SDS011;114;48.260;10.988;2023-09-08T06:40:39;12.53;;;11.23;;
261;SDS011;114;48.260;10.988;2023-09-08T06:43:05;12.77;;;11.33;;
261;SDS011;114;48.260;10.988;2023-09-08T06:45:31;12.30;;;10.30;;
261;SDS011;114;48.260;10.988;2023-09-08T06:47:57;14.80;;;10.63;;
261;SDS011;114;48.260;10.988;2023-09-08T06:50:25;14.60;;;10.13;;
261;SDS011;114;48.260;10.988;2023-09-08T06:52:51;13.20;;;10.70;;
261;SDS011;114;48.260;10.988;2023-09-08T06:55:17;22.50;;;11.23;;
261;SDS011;114;48.260;10.988;2023-09-08T06:57:44;11.13;;;9.43;;
261;SDS011;114;48.260;10.988;2023-09-08T07:00:11;26.87;;;10.13;;
261;SDS011;114;48.260;10.988;2023-09-08T07:02:38;20.87;;;10.07;;
261;SDS011;114;48.260;10.988;2023-09-08T07:05:04;12.40;;;9.43;;
261;SDS011;114;48.260;10.988;2023-09-08T07:07:36;12.63;;;9.10;;
261;SDS011;114;48.260;10.988;2023-09-08T07:10:05;14.43;;;9.40;;
261;SDS011;114;48.260;10.988;2023-09-08T07:12:31;16.20;;;9.47;;
261;SDS011;114;48.260;10.988;2023-09-08T07:14:57;10.70;;;9.70;;
261;SDS011;114;48.260;10.988;2023-09-08T07:17:23;16.20;;;11.50;;
261;SDS011;114;48.260;10.988;2023-09-08T07:19:49;11.50;;;10.30;;
261;SDS011;114;48.260;10.988;2023-09-08T07:22:15;12.23;;;10.40;;
261;SDS011;114;48.260;10.988;2023-09-08T07:24:43;16.90;;;11.10;;
261;SDS011;114;48.260;10.988;2023-09-08T07:27:10;13.07;;;10.50;;
261;SDS011;114;48.260;10.988;2023-09-08T07:29:39;15.03;;;11.03;;
261;SDS011;114;48.260;10.988;2023-09-08T07:32:05;15.07;;;10.73;;
261;SDS011;114;48.260;10.988;2023-09-08T07:34:31;17.13;;;10.57;;
261;SDS011;114;48.260;10.988;2023-09-08T07:36:56;15.10;;;10.60;;
261;SDS011;114;48.260;10.988;2023-09-08T07:39:22;13.17;;;11.33;;
261;SDS011;114;48.260;10.988;2023-09-08T07:41:49;13.60;;;10.47;;
261;SDS011;114;48.260;10.988;2023-09-08T07:44:14;12.53;;;11.10;;
261;SDS011;114;48.260;10.988;2023-09-08T07:46:40;17.60;;;11.00;;
261;SDS011;114;48.260;10.988;2023-09-08T07:49:06;12.57;;;10.47;;
261;SDS011;114;48.260;10.988;2023-09-08T07:51:31;12.40;;;10.73;;
261;SDS011;114;48.260;10.988;2023-09-08T07:53:57;16.20;;;10.40;;
261;SDS011;114;48.260;10.988;2023-09-08T07:56:25;16.23;;;11.03;;
261;SDS011;114;48.260;10.988;2023-09-08T07:58:50;15.13;;;10.60;;
261;SDS011;114;48.260;10.988;2023-09-08T08:01:16;12.37;;;11.07;;
261;SDS011;114;48.260;10.988;2023-09-08T08:03:42;13.03;;;11.57;;
261;SDS011;114;48.260;10.988;2023-09-08T08:06:08;14.97;;;10.87;;
261;SDS011;114;48.260;10.988;2023-09-08T08:08:39;11.20;;;9.60;;
261;SDS011;114;48.260;10.988;2023-09-08T08:11:12;13.33;;;11.93;;
261;SDS011;114;48.260;10.988;2023-09-08T08:13:38;12.27;;;10.97;;
261;SDS011;114;48.260;10.988;2023-09-08T08:16:04;15.83;;;10.80;;
261;SDS011;114;48.260;10.988;2023-09-08T08:18:30;14.30;;;11.30;;
261;SDS011;114;48.260;10.988;2023-09-08T08:20:56;20.43;;;10.77;;
261;SDS011;114;48.260;10.988;2023-09-08T08:23:21;12.40;;;10.50;;
261;SDS011;114;48.260;10.988;2023-09-08T08:25:48;12.90;;;10.50;;
261;SDS011;114;48.260;10.988;2023-09-08T08:28:14;14.03;;;10.20;;
261;SDS011;114;48.260;10.988;2023-09-08T08:30:40;13.13;;;11.47;;
261;SDS011;114;48.260;10.988;2023-09-08T08:33:07;17.73;;;12.33;;
261;SDS011;114;48.260;10.988;2023-09-08T08:35:32;15.30;;;11.07;;
261;SDS011;114;48.260;10.988;2023-09-08T08:37:58;12.57;;;9.97;;
261;SDS011;114;48.260;10.988;2023-09-08T08:40:27;16.73;;;11.33;;
261;SDS011;114;48.260;10.988;2023-09-08T08:42:54;14.03;;;11.30;;
261;SDS011;114;48.260;10.988;2023-09-08T08:45:26;13.67;;;10.67;;
261;SDS011;114;48.260;10.988;2023-09-08T08:47:53;14.53;;;9.00;;
261;SDS011;114;48.260;10.988;2023-09-08T08:50:19;10.23;;;9.23;;
261;SDS011;114;48.260;10.988;2023-09-08T08:52:46;12.77;;;11.07;;
261;SDS011;114;48.260;10.988;2023-09-08T08:55:12;11.53;;;9.80;;
261;SDS011;114;48.260;10.988;2023-09-08T08:57:39;16.63;;;10.03;;
261;SDS011;114;48.260;10.988;2023-09-08T09:00:10;15.70;;;10.60;;
261;SDS011;114;48.260;10.988;2023-09-08T09:02:41;10.97;;;9.80;;
261;SDS011;114;48.260;10.988;2023-09-08T09:05:08;13.33;;;11.60;;
261;SDS011;114;48.260;10.988;2023-09-08T09:07:37;12.90;;;9.77;;
261;SDS011;114;48.260;10.988;2023-09-08T09:10:04;12.80;;;10.33;;
261;SDS011;114;48.260;10.988;2023-09-08T09:12:32;12.20;;;10.17;;
261;SDS011;114;48.260;10.988;2023-09-08T09:14:58;24.20;;;9.57;;
261;SDS011;114;48.260;10.988;2023-09-08T09:17:25;13.33;;;8.73;;
261;SDS011;114;48.260;10.988;2023-09-08T09:19:53;11.80;;;8.57;;
261;SDS011;114;48.260;10.988;2023-09-08T09:22:40;15.27;;;9.87;;
261;SDS011;114;48.260;10.988;2023-09-08T09:25:06;15.83;;;9.50;;
261;SDS011;114;48.260;10.988;2023-09-08T09:27:32;12.10;;;9.10;;
261;SDS011;114;48.260;10.988;2023-09-08T09:30:04;23.83;;;9.73;;
261;SDS011;114;48.260;10.988;2023-09-08T09:32:30;15.10;;;10.40;;
261;SDS011;114;48.260;10.988;2023-09-08T09:34:57;16.83;;;8.00;;
261;SDS011;114;48.260;10.988;2023-09-08T09:37:26;12.50;;;8.57;;
261;SDS011;114;48.260;10.988;2023-09-08T09:39:53;15.00;;;8.40;;
261;SDS011;114;48.260;10.988;2023-09-08T09:42:20;10.40;;;8.60;;
261;SDS011;114;48.260;10.988;2023-09-08T09:44:49;8.57;;;7.77;;
261;SDS011;114;48.260;10.988;2023-09-08T09:47:17;20.83;;;9.97;;
261;SDS011;114;48.260;10.988;2023-09-08T09:49:45;10.77;;;7.73;;
261;SDS011;114;48.260;10.988;2023-09-08T09:52:12;13.43;;;7.63;;
261;SDS011;114;48.260;10.988;2023-09-08T09:54:42;16.23;;;6.97;;
261;SDS011;114;48.260;10.988;2023-09-08T09:57:12;11.37;;;7.47;;
261;SDS011;114;48.260;10.988;2023-09-08T09:59:41;8.60;;;7.80;;
261;SDS011;114;48.260;10.988;2023-09-08T10:02:14;9.60;;;7.00;;
261;SDS011;114;48.260;10.988;2023-09-08T10:04:40;11.43;;;6.77;;
261;SDS011;114;48.260;10.988;2023-09-08T10:07:07;16.10;;;6.43;;
261;SDS011;114;48.260;10.988;2023-09-08T10:09:33;7.73;;;7.03;;
261;SDS011;114;48.260;10.988;2023-09-08T10:12:05;8.83;;;6.50;;
261;SDS011;114;48.260;10.988;2023-09-08T10:14:35;7.13;;;6.57;;
261;SDS011;114;48.260;10.988;2023-09-08T10:17:01;9.37;;;6.30;;
261;SDS011;114;48.260;10.988;2023-09-08T10:19:30;6.93;;;5.50;;
261;SDS011;114;48.260;10.988;2023-09-08T10:21:59;12.33;;;7.17;;
261;SDS011;114;48.260;10.988;2023-09-08T10:24:29;10.73;;;6.43;;
261;SDS011;114;48.260;10.988;2023-09-08T10:27:07;6.20;;;5.60;;
261;SDS011;114;48.260;10.988;2023-09-08T10:29:37;9.63;;;7.57;;
261;SDS011;114;48.260;10.988;2023-09-08T10:32:04;7.57;;;6.80;;
261;SDS011;114;48.260;10.988;2023-09-08T10:34:33;7.33;;;6.50;;
261;SDS011;114;48.260;10.988;2023-09-08T10:37:01;6.70;;;6.20;;
261;SDS011;114;48.260;10.988;2023-09-08T10:39:32;6.93;;;6.33;;
261;SDS011;114;48.260;10.988;2023-09-08T10:44:42;5.57;;;5.10;;
261;SDS011;114;48.260;10.988;2023-09-08T10:47:33;6.53;;;5.97;;
261;SDS011;114;48.260;10.988;2023-09-08T10:50:27;6.40;;;5.80;;
261;SDS011;114;48.260;10.988;2023-09-08T10:53:30;10.43;;;6.00;;
261;SDS011;114;48.260;10.988;2023-09-08T10:55:50;8.93;;;5.50;;
261;SDS011;114;48.260;10.988;2023-09-08T11:00:47;25.43;;;5.47;;
261;SDS011;114;48.260;10.988;2023-09-08T11:03:25;8.50;;;4.95;;
261;SDS011;114;48.260;10.988;2023-09-08T11:05:52;12.50;;;5.18;;
261;SDS011;114;48.260;10.988;2023-09-08T11:08:18;14.63;;;6.18;;
261;SDS011;114;48.260;10.988;2023-09-08T11:10:44;5.85;;;5.10;;
261;SDS011;114;48.260;10.988;2023-09-08T11:13:10;7.10;;;5.00;;
261;SDS011;114;48.260;10.988;2023-09-08T11:15:37;16.65;;;5.00;;
261;SDS011;114;48.260;10.988;2023-09-08T11:18:06;7.55;;;4.75;;
261;SDS011;114;48.260;10.988;2023-09-08T11:20:33;10.43;;;4.35;;
261;SDS011;114;48.260;10.988;2023-09-08T11:23:00;9.75;;;5.18;;
261;SDS011;114;48.260;10.988;2023-09-08T11:25:26;5.88;;;5.03;;
261;SDS011;114;48.260;10.988;2023-09-08T11:27:52;8.18;;;5.55;;
261;SDS011;114;48.260;10.988;2023-09-08T11:30:18;5.47;;;4.97;;
261;SDS011;114;48.260;10.988;2023-09-08T11:32:43;15.40;;;5.50;;
261;SDS011;114;48.260;10.988;2023-09-08T11:35:09;8.27;;;5.35;;
261;SDS011;114;48.260;10.988;2023-09-08T11:37:41;15.10;;;4.90;;
261;SDS011;114;48.260;10.988;2023-09-08T11:40:07;7.05;;;4.90;;
261;SDS011;114;48.260;10.988;2023-09-08T11:42:35;5.60;;;4.13;;
261;SDS011;114;48.260;10.988;2023-09-08T11:45:01;4.63;;;4.22;;
261;SDS011;114;48.260;10.988;2023-09-08T11:47:29;11.32;;;3.63;;
261;SDS011;114;48.260;10.988;2023-09-08T11:49:55;5.15;;;4.38;;
261;SDS011;114;48.260;10.988;2023-09-08T11:52:22;3.75;;;3.40;;
261;SDS011;114;48.260;10.988;2023-09-08T11:54:49;4.13;;;3.90;;
261;SDS011;114;48.260;10.988;2023-09-08T11:57:16;6.97;;;3.85;;
261;SDS011;114;48.260;10.988;2023-09-08T11:59:42;4.43;;;3.55;;
261;SDS011;114;48.260;10.988;2023-09-08T12:02:11;5.40;;;4.15;;
261;SDS011;114;48.260;10.988;2023-09-08T12:04:37;3.95;;;3.60;;
261;SDS011;114;48.260;10.988;2023-09-08T12:07:04;16.17;;;4.03;;
261;SDS011;114;48.260;10.988;2023-09-08T12:09:29;7.63;;;2.92;;
261;SDS011;114;48.260;10.988;2023-09-08T12:11:56;3.63;;;3.22;;
261;SDS011;114;48.260;10.988;2023-09-08T12:14:25;6.65;;;3.35;;
261;SDS011;114;48.260;10.988;2023-09-08T12:16:54;6.78;;;2.88;;
261;SDS011;114;48.260;10.988;2023-09-08T12:19:32;8.00;;;4.45;;
261;SDS011;114;48.260;10.988;2023-09-08T12:22:01;4.03;;;3.15;;
261;SDS011;114;48.260;10.988;2023-09-08T12:27:24;3.10;;;2.80;;
261;SDS011;114;48.260;10.988;2023-09-08T12:29:54;9.80;;;2.80;;
261;SDS011;114;48.260;10.988;2023-09-08T12:32:22;3.15;;;2.95;;
261;SDS011;114;48.260;10.988;2023-09-08T12:34:48;5.10;;;3.20;;
261;SDS011;114;48.260;10.988;2023-09-08T12:37:19;5.72;;;2.92;;
261;SDS011;114;48.260;10.988;2023-09-08T12:39:48;5.00;;;2.63;;
261;SDS011;114;48.260;10.988;2023-09-08T12:42:14;6.15;;;2.90;;
261;SDS011;114;48.260;10.988;2023-09-08T12:44:40;3.63;;;2.53;;
261;SDS011;114;48.260;10.988;2023-09-08T12:47:06;6.00;;;3.22;;
261;SDS011;114;48.260;10.988;2023-09-08T12:49:32;5.57;;;2.70;;
261;SDS011;114;48.260;10.988;2023-09-08T12:51:57;2.60;;;2.50;;
261;SDS011;114;48.260;10.988;2023-09-08T12:54:24;2.78;;;2.67;;
261;SDS011;114;48.260;10.988;2023-09-08T12:56:50;3.17;;;2.88;;
261;SDS011;114;48.260;10.988;2023-09-08T12:59:16;3.28;;;2.22;;
261;SDS011;114;48.260;10.988;2023-09-08T13:01:41;4.15;;;2.80;;
261;SDS011;114;48.260;10.988;2023-09-08T13:04:07;2.75;;;2.65;;
261;SDS011;114;48.260;10.988;2023-09-08T13:06:33;9.85;;;3.22;;
261;SDS011;114;48.260;10.988;2023-09-08T13:09:00;3.50;;;2.72;;
261;SDS011;114;48.260;10.988;2023-09-08T13:11:25;5.80;;;2.85;;
261;SDS011;114;48.260;10.988;2023-09-08T13:13:51;3.30;;;2.53;;
261;SDS011;114;48.260;10.988;2023-09-08T13:16:17;2.90;;;2.70;;
261;SDS011;114;48.260;10.988;2023-09-08T13:18:43;4.63;;;2.65;;
261;SDS011;114;48.260;10.988;2023-09-08T13:21:10;3.22;;;2.28;;
261;SDS011;114;48.260;10.988;2023-09-08T13:23:36;3.80;;;2.42;;
261;SDS011;114;48.260;10.988;2023-09-08T13:26:02;9.52;;;2.58;;
261;SDS011;114;48.260;10.988;2023-09-08T13:28:27;2.38;;;2.28;;
261;SDS011;114;48.260;10.988;2023-09-08T13:30:53;3.28;;;2.60;;
261;SDS011;114;48.260;10.988;2023-09-08T13:33:19;5.38;;;2.67;;
261;SDS011;114;48.260;10.988;2023-09-08T13:35:45;9.75;;;2.40;;
261;SDS011;114;48.260;10.988;2023-09-08T13:38:11;4.53;;;2.30;;
261;SDS011;114;48.260;10.988;2023-09-08T13:40:36;9.90;;;2.35;;
261;SDS011;114;48.260;10.988;2023-09-08T13:43:02;2.45;;;2.25;;
261;SDS011;114;48.260;10.988;2023-09-08T13:45:28;2.97;;;2.58;;
261;SDS011;114;48.260;10.988;2023-09-08T13:47:54;3.58;;;2.30;;
261;SDS011;114;48.260;10.988;2023-09-08T13:50:19;5.55;;;2.25;;
261;SDS011;114;48.260;10.988;2023-09-08T13:52:45;4.78;;;2.25;;
261;SDS011;114;48.260;10.988;2023-09-08T13:55:11;4.35;;;2.42;;
261;SDS011;114;48.260;10.988;2023-09-08T13:57:37;5.00;;;2.20;;
261;SDS011;114;48.260;10.988;2023-09-08T14:00:03;3.40;;;2.42;;
261;SDS011;114;48.260;10.988;2023-09-08T14:02:29;3.55;;;2.58;;
261;SDS011;114;48.260;10.988;2023-09-08T14:04:56;3.03;;;2.05;;
261;SDS011;114;48.260;10.988;2023-09-08T14:07:22;4.15;;;2.13;;
261;SDS011;114;48.260;10.988;2023-09-08T14:09:48;5.05;;;2.13;;
261;SDS011;114;48.260;10.988;2023-09-08T14:12:13;2.25;;;2.05;;
261;SDS011;114;48.260;10.988;2023-09-08T14:14:40;2.60;;;2.40;;
261;SDS011;114;48.260;10.988;2023-09-08T14:17:06;5.45;;;2.20;;
261;SDS011;114;48.260;10.988;2023-09-08T14:19:31;4.20;;;2.40;;
261;SDS011;114;48.260;10.988;2023-09-08T14:21:57;2.65;;;2.45;;
261;SDS011;114;48.260;10.988;2023-09-08T14:24:23;2.10;;;2.00;;
261;SDS011;114;48.260;10.988;2023-09-08T14:26:49;2.40;;;2.22;;
261;SDS011;114;48.260;10.988;2023-09-08T14:29:16;3.00;;;1.80;;
261;SDS011;114;48.260;10.988;2023-09-08T14:31:42;3.63;;;2.05;;
261;SDS011;114;48.260;10.988;2023-09-08T14:34:08;5.90;;;1.70;;
261;SDS011;114;48.260;10.988;2023-09-08T14:36:34;2.70;;;1.90;;
261;SDS011;114;48.260;10.988;2023-09-08T14:39:00;7.00;;;1.70;;
261;SDS011;114;48.260;10.988;2023-09-08T14:41:25;2.60;;;1.60;;
261;SDS011;114;48.260;10.988;2023-09-08T14:43:51;3.45;;;1.85;;
261;SDS011;114;48.260;10.988;2023-09-08T14:46:17;8.90;;;2.05;;
261;SDS011;114;48.260;10.988;2023-09-08T14:48:44;6.32;;;1.95;;
261;SDS011;114;48.260;10.988;2023-09-08T14:51:10;3.67;;;1.95;;
261;SDS011;114;48.260;10.988;2023-09-08T14:53:35;4.95;;;2.53;;
261;SDS011;114;48.260;10.988;2023-09-08T14:56:01;2.58;;;2.20;;
261;SDS011;114;48.260;10.988;2023-09-08T14:58:30;3.60;;;2.20;;
261;SDS011;114;48.260;10.988;2023-09-08T15:00:59;2.10;;;1.90;;
261;SDS011;114;48.260;10.988;2023-09-08T15:03:29;5.03;;;2.22;;
261;SDS011;114;48.260;10.988;2023-09-08T15:05:58;5.35;;;1.80;;
261;SDS011;114;48.260;10.988;2023-09-08T15:08:24;2.63;;;2.42;;
261;SDS011;114;48.260;10.988;2023-09-08T15:10:50;8.82;;;2.20;;
261;SDS011;114;48.260;10.988;2023-09-08T15:13:16;6.35;;;2.10;;
261;SDS011;114;48.260;10.988;2023-09-08T15:15:42;2.75;;;2.40;;
261;SDS011;114;48.260;10.988;2023-09-08T15:18:09;2.25;;;2.15;;
261;SDS011;114;48.260;10.988;2023-09-08T15:20:34;2.60;;;2.40;;
261;SDS011;114;48.260;10.988;2023-09-08T15:23:00;4.13;;;1.83;;
261;SDS011;114;48.260;10.988;2023-09-08T15:25:26;1.70;;;1.60;;
261;SDS011;114;48.260;10.988;2023-09-08T15:27:51;4.50;;;1.65;;
261;SDS011;114;48.260;10.988;2023-09-08T15:30:19;5.35;;;2.20;;
261;SDS011;114;48.260;10.988;2023-09-08T15:32:45;4.78;;;2.00;;